createdAt,value
2023-03-30T00:01:10.775Z,53.77
2023-03-30T00:03:39.875Z,53.08
2023-03-30T00:06:10.531Z,52.62
2023-03-30T00:08:39.100Z,53.03
2023-03-30T00:11:09.207Z,53.12
2023-03-30T00:13:38.561Z,52.96
2023-03-30T00:16:08.733Z,52.71
2023-03-30T00:18:37.017Z,51.93
2023-03-30T00:21:05.782Z,53.42
2023-03-30T00:23:35.408Z,52.40
2023-03-30T00:26:04.362Z,52.10
2023-03-30T00:28:32.556Z,51.81
2023-03-30T00:31:00.356Z,51.64
2023-03-30T00:33:43.894Z,51.34
2023-03-30T00:36:12.687Z,51.69
2023-03-30T00:38:42.212Z,52.12
2023-03-30T00:41:10.825Z,52.56
2023-03-30T00:44:01.943Z,52.41
2023-03-30T00:46:31.855Z,52.44
2023-03-30T00:49:05.128Z,52.36
2023-03-30T00:51:36.017Z,52.48
2023-03-30T00:54:09.923Z,52.18
2023-03-30T00:56:38.178Z,53.29
2023-03-30T00:59:06.172Z,53.99
2023-03-30T01:01:38.820Z,54.21
2023-03-30T01:04:09.851Z,54.20
2023-03-30T01:06:40.431Z,54.44
2023-03-30T01:09:10.851Z,54.54
2023-03-30T01:11:38.631Z,54.87
2023-03-30T01:14:07.292Z,55.25
2023-03-30T01:16:39.671Z,55.60
2023-03-30T01:19:18.981Z,56.09
2023-03-30T01:22:04.704Z,56.37
2023-03-30T01:24:53.318Z,56.43
2023-03-30T01:27:46.471Z,56.86
2023-03-30T01:30:27.644Z,57.30
2023-03-30T01:33:02.174Z,57.83
2023-03-30T01:35:42.941Z,61.15
2023-03-30T01:38:35.043Z,61.86
2023-03-30T01:41:10.858Z,63.17
2023-03-30T01:43:40.075Z,64.63
2023-03-30T01:46:10.249Z,65.19
2023-03-30T01:48:45.364Z,64.96
2023-03-30T01:51:14.912Z,64.83
2023-03-30T01:53:47.692Z,65.76
2023-03-30T01:56:20.888Z,65.82
2023-03-30T01:58:50.435Z,66.60
2023-03-30T02:01:20.630Z,67.21
2023-03-30T02:03:52.396Z,67.03
2023-03-30T02:06:24.511Z,67.37
2023-03-30T02:08:55.767Z,67.67
2023-03-30T02:11:26.342Z,67.60
2023-03-30T02:13:58.533Z,67.76
2023-03-30T02:16:34.391Z,67.25
2023-03-30T02:19:02.495Z,65.96
2023-03-30T02:21:30.419Z,65.95
2023-03-30T02:24:00.002Z,65.69
2023-03-30T02:26:34.038Z,65.12
2023-03-30T02:29:02.312Z,65.25
2023-03-30T02:31:31.244Z,64.18
2023-03-30T02:34:11.572Z,63.55
2023-03-30T02:37:00.305Z,63.99
2023-03-30T02:39:40.973Z,63.69
2023-03-30T02:42:40.824Z,63.54
2023-03-30T02:45:20.958Z,64.71
2023-03-30T02:48:01.974Z,64.47
2023-03-30T02:50:37.466Z,64.44
2023-03-30T02:53:23.439Z,64.37
2023-03-30T02:56:00.583Z,64.95
2023-03-30T02:58:46.509Z,67.64
2023-03-30T03:01:23.644Z,68.88
2023-03-30T03:04:00.419Z,70.64
2023-03-30T03:06:33.744Z,70.87
2023-03-30T03:09:02.005Z,72.92
2023-03-30T03:11:32.722Z,74.57
2023-03-30T03:14:02.897Z,75.89
2023-03-30T03:16:33.409Z,74.28
2023-03-30T03:19:19.863Z,74.31
2023-03-30T03:21:51.732Z,74.86
2023-03-30T03:24:19.996Z,75.08
2023-03-30T03:27:06.660Z,74.44
2023-03-30T03:29:49.437Z,75.25
2023-03-30T03:32:17.299Z,75.41
2023-03-30T03:34:48.468Z,76.76
2023-03-30T03:37:16.613Z,78.92
2023-03-30T03:39:47.279Z,78.34
2023-03-30T03:42:16.964Z,78.83
2023-03-30T03:45:05.247Z,79.86
2023-03-30T03:47:34.033Z,82.32
2023-03-30T03:50:04.032Z,81.47
2023-03-30T03:52:32.185Z,81.06
2023-03-30T03:54:59.995Z,80.94
2023-03-30T03:57:30.841Z,80.80
2023-03-30T03:59:59.960Z,81.73
2023-03-30T04:02:29.628Z,80.82
2023-03-30T04:04:57.901Z,81.10
2023-03-30T04:07:26.542Z,81.15
2023-03-30T04:09:54.443Z,80.96
2023-03-30T04:12:40.477Z,81.97
2023-03-30T04:15:27.323Z,81.72
2023-03-30T04:18:33.525Z,82.47
2023-03-30T04:21:31.924Z,81.67
2023-03-30T04:24:12.670Z,80.73
2023-03-30T04:26:53.707Z,80.75
2023-03-30T04:29:40.646Z,82.00
2023-03-30T04:32:54.805Z,82.24
2023-03-30T04:35:37.108Z,82.03
2023-03-30T04:38:25.379Z,82.11
2023-03-30T04:41:01.823Z,81.35
2023-03-30T04:44:02.142Z,80.73
2023-03-30T04:46:44.601Z,80.34
2023-03-30T04:49:30.759Z,81.85
2023-03-30T04:52:29.758Z,81.28
2023-03-30T04:55:20.845Z,81.00
2023-03-30T04:58:07.535Z,80.38
2023-03-30T05:01:00.812Z,80.78
2023-03-30T05:03:46.444Z,80.65
2023-03-30T05:06:52.342Z,80.26
2023-03-30T05:09:40.956Z,80.46
2023-03-30T05:12:26.244Z,80.55
2023-03-30T05:15:14.365Z,80.54
2023-03-30T05:18:08.327Z,80.42
2023-03-30T05:20:58.060Z,80.40
2023-03-30T05:23:26.464Z,79.65
2023-03-30T05:26:08.776Z,80.84
2023-03-30T05:29:12.017Z,80.73
2023-03-30T05:32:00.608Z,81.65
2023-03-30T05:34:52.807Z,82.18
2023-03-30T05:37:31.267Z,82.40
2023-03-30T05:40:09.530Z,82.07
2023-03-30T05:42:59.123Z,82.23
2023-03-30T05:45:44.257Z,81.67
2023-03-30T05:48:31.178Z,81.31
2023-03-30T05:51:08.412Z,81.13
2023-03-30T05:53:47.266Z,81.20
2023-03-30T05:56:27.394Z,82.96
2023-03-30T05:59:25.977Z,82.28
2023-03-30T06:02:04.051Z,81.94
2023-03-30T06:04:32.662Z,81.88
2023-03-30T06:07:02.297Z,82.58
2023-03-30T06:09:32.757Z,83.42
2023-03-30T06:12:05.063Z,83.44
2023-03-30T06:14:35.902Z,85.67
2023-03-30T06:17:22.477Z,86.05
2023-03-30T06:19:50.534Z,87.06
2023-03-30T06:22:18.474Z,86.26
2023-03-30T06:25:00.762Z,85.35
2023-03-30T06:27:31.588Z,86.64
2023-03-30T06:30:02.008Z,86.46
2023-03-30T06:32:30.754Z,85.44
2023-03-30T06:35:01.353Z,88.49
2023-03-30T06:37:30.101Z,87.65
2023-03-30T06:39:58.180Z,85.30
2023-03-30T06:42:28.413Z,83.81
2023-03-30T06:45:12.791Z,82.74
2023-03-30T06:47:42.395Z,82.61
2023-03-30T06:50:11.920Z,81.39
2023-03-30T06:52:54.725Z,81.48
2023-03-30T06:55:24.409Z,80.64
2023-03-30T06:57:53.704Z,81.06
2023-03-30T07:00:23.724Z,83.30
2023-03-30T07:03:10.328Z,85.15
2023-03-30T07:05:50.546Z,85.59
2023-03-30T07:08:34.049Z,87.32
2023-03-30T07:11:02.539Z,88.04
2023-03-30T07:13:33.406Z,88.28
2023-03-30T07:16:03.240Z,88.40
2023-03-30T07:18:33.235Z,88.81
2023-03-30T07:21:06.523Z,88.91
2023-03-30T07:23:41.344Z,90.13
2023-03-30T07:26:14.360Z,91.52
2023-03-30T07:28:50.918Z,91.40
2023-03-30T07:31:24.660Z,93.38
2023-03-30T07:33:53.426Z,93.55
2023-03-30T07:36:26.457Z,93.99
2023-03-30T07:38:54.781Z,95.18
2023-03-30T07:41:25.262Z,94.89
2023-03-30T07:43:57.769Z,94.28
2023-03-30T07:46:27.745Z,94.05
2023-03-30T07:48:58.802Z,94.67
2023-03-30T07:51:28.506Z,94.61
2023-03-30T07:54:23.010Z,94.73
2023-03-30T07:57:08.514Z,93.63
2023-03-30T07:59:36.700Z,92.76
2023-03-30T08:02:18.153Z,97.07
2023-03-30T08:04:50.589Z,96.97
2023-03-30T08:07:27.586Z,94.79
2023-03-30T08:10:02.418Z,95.95
2023-03-30T08:12:30.788Z,94.07
2023-03-30T08:14:58.818Z,93.59
2023-03-30T08:17:28.213Z,93.45
2023-03-30T08:19:56.996Z,93.34
2023-03-30T08:22:25.089Z,92.82
2023-03-30T08:24:53.133Z,92.75
2023-03-30T08:27:21.179Z,92.58
2023-03-30T08:29:49.225Z,93.10
2023-03-30T08:32:17.675Z,94.11
2023-03-30T08:34:49.734Z,93.34
2023-03-30T08:37:17.662Z,92.89
2023-03-30T08:39:45.860Z,94.45
2023-03-30T08:42:36.132Z,92.96
2023-03-30T08:45:09.687Z,93.54
2023-03-30T08:47:40.144Z,94.62
2023-03-30T08:50:13.055Z,94.91
2023-03-30T08:52:42.145Z,94.99
2023-03-30T08:55:17.070Z,96.17
2023-03-30T08:57:48.976Z,95.54
2023-03-30T09:00:27.659Z,96.32
2023-03-30T09:02:59.451Z,97.52
2023-03-30T09:05:31.525Z,99.03
2023-03-30T09:08:03.633Z,99.23
2023-03-30T09:10:33.192Z,100.00
2023-03-30T09:13:03.480Z,99.97
2023-03-30T09:15:32.668Z,99.94
2023-03-30T09:18:03.626Z,100.00
2023-03-30T09:20:34.826Z,99.71
2023-03-30T09:23:03.647Z,98.28
2023-03-30T09:25:35.849Z,98.05
2023-03-30T09:28:07.959Z,97.65
2023-03-30T09:30:38.590Z,95.65
2023-03-30T09:33:11.564Z,95.28
2023-03-30T09:35:42.735Z,95.51
2023-03-30T09:38:12.097Z,95.13
2023-03-30T09:40:48.572Z,93.21
2023-03-30T09:43:17.674Z,92.45
2023-03-30T09:45:48.177Z,92.98
2023-03-30T09:48:17.034Z,93.37
2023-03-30T09:50:47.199Z,93.08
2023-03-30T09:53:25.304Z,92.67
2023-03-30T09:55:59.982Z,89.54
2023-03-30T09:58:28.872Z,89.36
2023-03-30T10:01:05.433Z,89.56
2023-03-30T10:03:33.876Z,88.29
2023-03-30T10:06:07.479Z,87.95
2023-03-30T10:08:39.529Z,88.18
2023-03-30T10:11:07.961Z,86.76
2023-03-30T10:13:37.679Z,86.95
2023-03-30T10:16:07.631Z,86.38
2023-03-30T10:18:40.565Z,83.86
2023-03-30T10:21:17.957Z,83.49
2023-03-30T10:23:46.680Z,82.69
2023-03-30T10:26:17.660Z,81.64
2023-03-30T10:28:53.554Z,82.03
2023-03-30T10:31:21.915Z,81.33
2023-03-30T10:33:49.804Z,82.74
2023-03-30T10:36:20.388Z,82.63
2023-03-30T10:38:48.392Z,81.13
2023-03-30T10:41:20.472Z,80.84
2023-03-30T10:43:49.455Z,80.11
2023-03-30T10:46:20.469Z,78.90
2023-03-30T10:49:00.139Z,78.12
2023-03-30T10:51:32.291Z,78.51
2023-03-30T10:54:04.300Z,78.70
2023-03-30T10:56:33.883Z,79.96
2023-03-30T10:59:31.842Z,80.27
2023-03-30T11:02:17.051Z,79.54
2023-03-30T11:04:47.240Z,78.13
2023-03-30T11:07:18.978Z,78.63
2023-03-30T11:09:52.380Z,76.05
2023-03-30T11:12:22.533Z,73.09
2023-03-30T11:14:52.624Z,72.99
2023-03-30T11:17:24.042Z,71.06
2023-03-30T11:19:54.672Z,71.70
2023-03-30T11:22:27.075Z,70.02
2023-03-30T11:24:56.977Z,70.46
2023-03-30T11:27:27.998Z,70.09
2023-03-30T11:30:00.041Z,68.99
2023-03-30T11:32:32.778Z,69.46
2023-03-30T11:35:07.183Z,69.46
2023-03-30T11:37:39.934Z,69.45
2023-03-30T11:40:16.609Z,68.40
2023-03-30T11:42:44.848Z,69.26
2023-03-30T11:45:18.889Z,70.20
2023-03-30T11:47:56.894Z,71.81
2023-03-30T11:50:32.886Z,71.89
2023-03-30T11:53:18.012Z,72.26
2023-03-30T11:55:55.994Z,69.44
2023-03-30T11:58:56.637Z,68.32
2023-03-30T12:01:38.598Z,68.48
2023-03-30T12:04:11.596Z,68.47
2023-03-30T12:06:43.578Z,68.55
2023-03-30T12:09:34.450Z,68.58
2023-03-30T12:12:15.594Z,69.42
2023-03-30T12:14:56.412Z,68.34
2023-03-30T12:17:42.544Z,68.12
2023-03-30T12:20:22.885Z,67.21
2023-03-30T12:22:56.530Z,67.26
2023-03-30T12:25:35.757Z,67.70
2023-03-30T12:28:12.362Z,66.04
2023-03-30T12:30:45.684Z,61.76
2023-03-30T12:33:19.119Z,62.58
2023-03-30T12:35:58.611Z,62.60
2023-03-30T12:38:30.010Z,62.14
2023-03-30T12:41:14.584Z,61.30
2023-03-30T12:44:15.772Z,61.88
2023-03-30T12:46:52.515Z,61.00
2023-03-30T12:49:31.501Z,60.66
2023-03-30T12:52:10.662Z,60.38
2023-03-30T12:55:10.352Z,60.16
2023-03-30T12:57:53.161Z,60.12
2023-03-30T13:00:40.982Z,59.22
2023-03-30T13:03:37.959Z,57.68
2023-03-30T13:06:11.757Z,56.55
2023-03-30T13:08:41.994Z,56.31
2023-03-30T13:11:14.509Z,57.19
2023-03-30T13:13:58.489Z,56.32
2023-03-30T13:17:02.730Z,55.25
2023-03-30T13:20:18.551Z,55.64
2023-03-30T13:23:01.406Z,53.35
2023-03-30T13:25:39.514Z,50.46
2023-03-30T13:28:33.183Z,51.35
2023-03-30T13:31:16.529Z,50.74
2023-03-30T13:33:50.235Z,51.39
2023-03-30T13:36:22.500Z,51.49
2023-03-30T13:39:01.988Z,52.33
2023-03-30T13:41:47.885Z,51.93
2023-03-30T13:44:40.049Z,52.12
2023-03-30T13:47:32.847Z,52.60
2023-03-30T13:50:10.738Z,53.42
2023-03-30T13:52:46.384Z,53.99
2023-03-30T13:55:27.589Z,52.31
2023-03-30T13:58:02.287Z,52.95
2023-03-30T14:00:47.171Z,55.04
2023-03-30T14:03:34.734Z,54.91
2023-03-30T14:06:08.761Z,54.64
2023-03-30T14:08:40.095Z,55.22
2023-03-30T14:11:25.184Z,53.77
2023-03-30T14:14:05.340Z,53.55
2023-03-30T14:16:59.183Z,53.67
2023-03-30T14:19:48.997Z,53.44
2023-03-30T14:22:22.818Z,53.09
2023-03-30T14:24:58.909Z,52.76
2023-03-30T14:27:27.500Z,53.06
2023-03-30T14:29:56.415Z,52.24
2023-03-30T14:32:27.075Z,52.17
2023-03-30T14:34:56.478Z,52.23
2023-03-30T14:37:27.442Z,52.68
2023-03-30T14:39:58.867Z,52.42
2023-03-30T14:42:35.013Z,52.98
2023-03-30T14:45:04.646Z,52.43
2023-03-30T14:47:33.280Z,52.29
2023-03-30T14:50:06.654Z,50.72
2023-03-30T14:52:41.007Z,50.75
2023-03-30T14:55:18.394Z,50.23
2023-03-30T14:57:48.360Z,50.02
2023-03-30T15:00:22.587Z,51.14
2023-03-30T15:02:56.864Z,53.84
2023-03-30T15:05:31.273Z,53.58
2023-03-30T15:08:00.695Z,52.32
2023-03-30T15:10:35.328Z,52.02
2023-03-30T15:13:07.478Z,51.36
2023-03-30T15:15:36.596Z,51.57
2023-03-30T15:18:05.851Z,52.73
2023-03-30T15:20:34.006Z,52.22
2023-03-30T15:23:03.694Z,52.77
2023-03-30T15:25:35.458Z,52.91
2023-03-30T15:28:09.398Z,53.91
2023-03-30T15:30:40.450Z,54.23
2023-03-30T15:33:20.995Z,53.69
2023-03-30T15:35:51.732Z,55.76
2023-03-30T15:38:30.637Z,56.41
2023-03-30T15:40:58.920Z,56.53
2023-03-30T15:43:30.256Z,56.14
2023-03-30T15:46:03.787Z,57.29
2023-03-30T15:48:38.626Z,56.56
2023-03-30T15:51:14.476Z,56.20
2023-03-30T15:53:51.078Z,56.97
2023-03-30T15:56:23.775Z,56.55
2023-03-30T15:58:54.442Z,56.95
2023-03-30T16:01:23.501Z,57.38
2023-03-30T16:03:56.938Z,58.63
2023-03-30T16:06:25.430Z,57.34
2023-03-30T16:08:55.087Z,57.05
2023-03-30T16:11:24.063Z,57.22
2023-03-30T16:13:54.228Z,56.87
2023-03-30T16:16:22.766Z,56.79
2023-03-30T16:18:50.981Z,55.44
2023-03-30T16:21:24.447Z,53.96
2023-03-30T16:23:54.743Z,52.44
2023-03-30T16:26:22.759Z,51.65
2023-03-30T16:28:52.713Z,52.09
2023-03-30T16:31:23.556Z,51.68
2023-03-30T16:33:52.624Z,51.74
2023-03-30T16:36:22.277Z,52.27
2023-03-30T16:38:50.288Z,51.78
2023-03-30T16:41:21.743Z,52.75
2023-03-30T16:43:50.523Z,52.16
2023-03-30T16:46:22.420Z,51.74
2023-03-30T16:48:50.849Z,53.27
2023-03-30T16:51:19.887Z,53.45
2023-03-30T16:53:48.315Z,53.79
2023-03-30T16:56:18.531Z,54.67
2023-03-30T16:58:50.570Z,55.80
2023-03-30T17:01:18.948Z,55.51
2023-03-30T17:03:50.095Z,54.71
2023-03-30T17:06:22.513Z,54.76
2023-03-30T17:08:50.870Z,54.90
2023-03-30T17:11:18.998Z,55.86
2023-03-30T17:13:49.132Z,56.02
2023-03-30T17:16:18.852Z,55.99
2023-03-30T17:18:46.863Z,56.28
2023-03-30T17:21:17.245Z,56.07
2023-03-30T17:23:47.703Z,57.55
2023-03-30T17:26:16.192Z,56.12
2023-03-30T17:28:44.913Z,56.14
2023-03-30T17:31:17.476Z,56.89
2023-03-30T17:33:47.432Z,56.73
2023-03-30T17:36:21.329Z,57.56
2023-03-30T17:38:50.220Z,56.97
2023-03-30T17:41:19.958Z,58.16
2023-03-30T17:43:49.023Z,58.10
2023-03-30T17:46:21.370Z,57.91
2023-03-30T17:48:52.976Z,57.99
2023-03-30T17:51:40.891Z,58.18
2023-03-30T17:54:11.679Z,57.24
2023-03-30T17:56:40.551Z,58.36
2023-03-30T17:59:13.493Z,58.75
2023-03-30T18:01:42.112Z,59.23
2023-03-30T18:04:14.125Z,58.85
2023-03-30T18:06:43.467Z,58.55
2023-03-30T18:09:17.199Z,57.31
2023-03-30T18:11:46.656Z,58.67
2023-03-30T18:14:16.065Z,57.82
2023-03-30T18:16:45.974Z,58.44
2023-03-30T18:19:15.862Z,59.51
2023-03-30T18:21:44.167Z,59.65
2023-03-30T18:24:12.652Z,59.16
2023-03-30T18:26:43.202Z,59.21
2023-03-30T18:29:19.999Z,59.16
2023-03-30T18:31:54.526Z,60.65
2023-03-30T18:34:25.782Z,61.11
2023-03-30T18:36:53.951Z,60.36
2023-03-30T18:39:21.999Z,59.45
2023-03-30T18:41:50.923Z,59.08
2023-03-30T18:44:19.035Z,59.12
2023-03-30T18:46:52.484Z,59.49
2023-03-30T18:49:23.486Z,59.10
2023-03-30T18:51:53.583Z,58.93
2023-03-30T18:54:22.218Z,60.60
2023-03-30T18:56:51.540Z,60.87
2023-03-30T18:59:22.985Z,60.87
2023-03-30T19:01:51.272Z,62.26
2023-03-30T19:04:24.979Z,60.94
2023-03-30T19:06:57.382Z,61.54
2023-03-30T19:09:40.195Z,60.86
2023-03-30T19:12:14.864Z,60.02
2023-03-30T19:14:43.358Z,58.10
2023-03-30T19:17:11.534Z,58.44
2023-03-30T19:19:39.384Z,59.89
2023-03-30T19:22:09.398Z,59.48
2023-03-30T19:24:37.265Z,59.41
2023-03-30T19:27:07.929Z,58.08
2023-03-30T19:29:36.956Z,57.15
2023-03-30T19:32:06.073Z,56.88
2023-03-30T19:34:38.075Z,56.71
2023-03-30T19:37:08.862Z,57.09
2023-03-30T19:39:36.851Z,57.18
2023-03-30T19:42:07.457Z,57.61
2023-03-30T19:44:38.459Z,57.90
2023-03-30T19:47:06.662Z,59.06
2023-03-30T19:49:35.101Z,59.69
2023-03-30T19:52:03.299Z,59.08
2023-03-30T19:54:33.095Z,59.53
2023-03-30T19:57:01.182Z,59.27
2023-03-30T19:59:29.563Z,59.59
2023-03-30T20:01:57.454Z,60.83
2023-03-30T20:04:25.392Z,60.47
2023-03-30T20:06:53.919Z,60.29
2023-03-30T20:09:22.255Z,60.76
2023-03-30T20:11:52.136Z,61.60
2023-03-30T20:14:20.078Z,60.92
2023-03-30T20:16:49.891Z,61.23
2023-03-30T20:19:29.069Z,61.52
2023-03-30T20:21:58.196Z,61.62
2023-03-30T20:24:27.273Z,62.63
2023-03-30T20:26:57.078Z,62.37
2023-03-30T20:29:25.432Z,61.67
2023-03-30T20:31:53.850Z,64.33
2023-03-30T20:34:21.893Z,63.23
2023-03-30T20:36:50.097Z,63.41
2023-03-30T20:39:21.713Z,63.29
2023-03-30T20:41:54.063Z,63.12
2023-03-30T20:44:30.051Z,63.63
2023-03-30T20:47:02.603Z,65.20
2023-03-30T20:49:32.693Z,65.94
2023-03-30T20:52:01.999Z,65.38
2023-03-30T20:54:31.498Z,64.95
2023-03-30T20:56:59.352Z,65.58
2023-03-30T20:59:28.891Z,65.76
2023-03-30T21:01:59.203Z,66.27
2023-03-30T21:04:29.077Z,65.46
2023-03-30T21:06:57.456Z,65.55
2023-03-30T21:09:29.472Z,65.78
2023-03-30T21:11:57.831Z,66.32
2023-03-30T21:14:26.390Z,66.54
2023-03-30T21:16:55.720Z,65.69
2023-03-30T21:19:23.675Z,65.91
2023-03-30T21:21:51.785Z,65.72
2023-03-30T21:24:19.995Z,65.59
2023-03-30T21:26:48.143Z,65.40
2023-03-30T21:29:16.297Z,65.56
2023-03-30T21:31:46.839Z,64.52
2023-03-30T21:34:19.065Z,64.42
2023-03-30T21:36:47.844Z,64.15
2023-03-30T21:39:15.935Z,63.72
2023-03-30T21:41:45.260Z,65.40
2023-03-30T21:44:13.731Z,64.81
2023-03-30T21:46:41.812Z,63.96
2023-03-30T21:49:13.188Z,63.66
2023-03-30T21:51:43.589Z,65.13
2023-03-30T21:54:12.470Z,63.72
2023-03-30T21:56:40.447Z,62.59
2023-03-30T21:59:09.682Z,61.79
2023-03-30T22:01:38.850Z,62.25
2023-03-30T22:04:07.639Z,61.41
2023-03-30T22:06:35.972Z,61.70
2023-03-30T22:09:05.958Z,62.07
2023-03-30T22:11:33.928Z,62.07
2023-03-30T22:14:01.883Z,61.28
2023-03-30T22:16:33.281Z,60.85
2023-03-30T22:19:01.768Z,60.84
2023-03-30T22:21:34.215Z,61.72
2023-03-30T22:24:06.335Z,61.34
2023-03-30T22:26:34.427Z,61.26
2023-03-30T22:29:02.460Z,61.05
2023-03-30T22:31:30.947Z,61.47
2023-03-30T22:33:59.354Z,61.17
2023-03-30T22:36:29.956Z,60.40
2023-03-30T22:38:59.747Z,59.87
2023-03-30T22:41:30.018Z,60.33
2023-03-30T22:43:59.519Z,59.99
2023-03-30T22:46:28.667Z,59.80
2023-03-30T22:48:57.212Z,59.68
2023-03-30T22:51:26.331Z,59.69
2023-03-30T22:53:56.543Z,59.61
2023-03-30T22:56:24.733Z,60.42
2023-03-30T22:58:54.473Z,60.83
2023-03-30T23:01:23.008Z,59.86
2023-03-30T23:03:53.309Z,60.48
2023-03-30T23:06:21.736Z,60.65
2023-03-30T23:08:49.780Z,60.30
2023-03-30T23:11:21.712Z,60.99
2023-03-30T23:13:52.589Z,60.70
2023-03-30T23:16:22.461Z,59.75
2023-03-30T23:18:51.542Z,60.38
2023-03-30T23:21:22.303Z,60.88
2023-03-30T23:23:50.808Z,61.00
2023-03-30T23:26:19.522Z,60.66
2023-03-30T23:28:47.432Z,60.37
2023-03-30T23:31:19.090Z,59.56
2023-03-30T23:33:48.439Z,58.75
2023-03-30T23:36:17.619Z,59.02
2023-03-30T23:38:45.833Z,58.70
2023-03-30T23:41:15.652Z,58.82
2023-03-30T23:43:43.828Z,59.53
2023-03-30T23:46:11.810Z,59.35
2023-03-30T23:48:39.804Z,58.81
2023-03-30T23:51:09.928Z,58.45
2023-03-30T23:53:40.098Z,58.29
2023-03-30T23:56:12.890Z,58.41
2023-03-30T23:58:41.461Z,58.30
